Decoded Metar for LEDA (LLEIDA in SPAIN) (IATA:ILD) | Meteo·Mobile Aviation Weather
aviador You're here:

LEDA Decoded Metar

LLEIDA in SPAIN
Report Time2019-05-21 16:00:00
UTC Time2019-05-21 16:31:02
Flight Rules vfr VFR
Wind220° at 07 kt
W.Decomp.*RWY 13: 7.0 kt RCW
Visibility9999 m
Phenomena:N/A
Clouds:Few 040 Hf
Expected CloudBase > 8,400 ft AGL from Temp-Dew spread
CeilingNone
Temp24°C (ISA +11)
Dew Point03°C (25% RH)
AAT19.9°C
QNH1014 hPa
Density Alt2,533 ft
Elevation1,152 ft
Report Wrong Elevation
Raw Report
LEDA 211600Z 22007KT 170V260 9999 FEW040 24/03 Q1014=

Extra information for LEDA:More info

Metar Taf Metar & Taf Last 4 Metars F.Rules Stats Wind Profile Meteogram Temp Stats Airport Information Weather charts Add Link Nearby VenuesMetar ALERT Operation Metar Decoded Social comments